Time;durP1;ratioP1;P1;durP2;ratioP2;P2;SDS_P1;SDS_P2;PMS_P1;PMS_P2;Temp;Humidity;BMP_temperature;BMP_pressure;BME280_temperature;BME280_humidity;BME280_pressure;Samples;Min_cycle;Max_cycle;Signal;HPM_P1;HPM_P2
2021/01/06 00:00:07;;;;;;;19.00;13.85;;;17.30;99.90;;;;;;5127450;28;20034;-33
2021/01/06 00:02:33;;;;;;;18.48;13.90;;;17.40;99.90;;;;;;5125467;28;20494;-32
2021/01/06 00:04:59;;;;;;;21.25;13.10;;;17.40;99.90;;;;;;5126180;28;20098;-33
2021/01/06 00:07:25;;;;;;;17.17;12.20;;;17.30;99.90;;;;;;5123405;28;20028;-33
2021/01/06 00:09:51;;;;;;;16.20;11.60;;;17.30;99.90;;;;;;5123365;28;20106;-33
2021/01/06 00:12:18;;;;;;;17.33;11.82;;;17.30;99.90;;;;;;5121568;28;20469;-33
2021/01/06 00:14:44;;;;;;;;;;;17.30;99.90;;;;;;5129055;28;20033;-32
2021/01/06 00:17:10;;;;;;;18.27;12.63;;;17.20;99.90;;;;;;5127985;28;20300;-32
2021/01/06 00:19:36;;;;;;;17.17;12.25;;;17.20;99.90;;;;;;5128581;28;20041;-32
2021/01/06 00:22:02;;;;;;;18.23;13.27;;;17.20;99.90;;;;;;5125355;28;20096;-32
2021/01/06 00:24:28;;;;;;;18.48;12.38;;;17.20;99.90;;;;;;5105374;28;20036;-32
2021/01/06 00:26:53;;;;;;;18.55;12.73;;;17.20;99.90;;;;;;5131930;28;20056;-32
2021/01/06 00:29:19;;;;;;;17.90;11.77;;;17.10;99.90;;;;;;5128060;28;20011;-32
2021/01/06 00:31:45;;;;;;;15.20;11.88;;;17.10;99.90;;;;;;5131445;27;20106;-32
2021/01/06 00:34:12;;;;;;;17.15;12.13;;;17.20;99.90;;;;;;5131706;27;20026;-32
2021/01/06 00:36:38;;;;;;;17.60;12.30;;;17.20;99.90;;;;;;5133359;27;20034;-32
2021/01/06 00:39:05;;;;;;;18.60;10.85;;;17.10;99.90;;;;;;5130157;27;20023;-32
2021/01/06 00:41:34;;;;;;;17.10;12.23;;;17.10;99.90;;;;;;5131643;27;20781;-32
2021/01/06 00:44:01;;;;;;;14.70;10.00;;;17.10;99.90;;;;;;5112576;27;20382;-32
2021/01/06 00:46:33;;;;;;;16.90;11.35;;;17.10;99.90;;;;;;5131524;27;20106;-32
2021/01/06 00:49:00;;;;;;;14.98;9.98;;;17.00;99.90;;;;;;5130419;27;20468;-32
2021/01/06 00:51:27;;;;;;;14.63;9.85;;;17.00;99.90;;;;;;5130623;27;20019;-32
2021/01/06 00:53:52;;;;;;;14.43;9.88;;;17.00;99.90;;;;;;5127118;27;20528;-32
2021/01/06 00:56:38;;;;;;;13.88;11.23;;;17.00;99.90;;;;;;5134482;27;20106;-32
2021/01/06 00:59:04;;;;;;;13.82;11.38;;;17.00;99.90;;;;;;5134035;27;20110;-32
2021/01/06 01:01:30;;;;;;;14.48;11.38;;;17.00;99.90;;;;;;5125510;27;20111;-32
2021/01/06 01:03:57;;;;;;;15.77;12.13;;;17.00;99.90;;;;;;5125131;27;20019;-32
2021/01/06 01:06:33;;;;;;;14.65;10.88;;;16.90;99.90;;;;;;5132376;27;20078;-32
2021/01/06 01:08:59;;;;;;;16.73;10.93;;;16.90;99.90;;;;;;5127535;27;20023;-32
2021/01/06 01:11:26;;;;;;;15.50;10.95;;;16.90;99.90;;;;;;5128747;27;20038;-32
2021/01/06 01:13:54;;;;;;;12.63;10.20;;;16.90;99.90;;;;;;5130387;27;20490;-32
2021/01/06 01:16:20;;;;;;;16.20;11.77;;;16.90;99.90;;;;;;5124211;27;20020;-32
2021/01/06 01:18:47;;;;;;;13.70;11.30;;;16.90;99.90;;;;;;5131063;27;20043;-31
2021/01/06 01:21:17;;;;;;;14.15;10.95;;;16.90;99.90;;;;;;5130195;27;20027;-32
2021/01/06 01:23:42;;;;;;;14.85;10.65;;;16.90;99.90;;;;;;5123582;27;20023;-32
2021/01/06 01:26:10;;;;;;;14.30;10.25;;;16.90;99.90;;;;;;5131751;27;20046;-32
2021/01/06 01:28:36;;;;;;;13.50;10.60;;;16.80;99.90;;;;;;5131393;27;20464;-32
2021/01/06 01:31:02;;;;;;;13.43;10.18;;;16.80;99.90;;;;;;5131106;27;20050;-32
2021/01/06 01:33:28;;;;;;;11.75;9.45;;;16.80;99.90;;;;;;5131804;27;20034;-32
2021/01/06 01:35:54;;;;;;;16.10;10.05;;;16.70;99.90;;;;;;5132994;27;20027;-32
2021/01/06 01:38:26;;;;;;;13.80;11.05;;;16.60;99.90;;;;;;5132121;27;20544;-32
2021/01/06 01:41:01;;;;;;;14.60;9.93;;;16.70;99.90;;;;;;5134243;27;20026;-31
2021/01/06 01:43:28;;;;;;;11.55;9.40;;;16.60;99.90;;;;;;5127290;27;20031;-32
2021/01/06 01:45:54;;;;;;;12.35;9.98;;;16.60;99.90;;;;;;5130519;27;20020;-32
2021/01/06 01:49:04;;;;;;;14.77;10.23;;;16.60;99.90;;;;;;5133267;27;20038;-32
2021/01/06 01:51:43;;;;;;;11.35;9.20;;;16.60;99.90;;;;;;5050797;28;20033;-32
2021/01/06 01:54:13;;;;;;;10.70;8.90;;;16.60;99.90;;;;;;5050064;28;20025;-32
2021/01/06 01:56:51;;;;;;;12.20;9.02;;;16.60;99.90;;;;;;5051636;28;20487;-32
2021/01/06 01:59:21;;;;;;;11.68;9.40;;;16.60;99.90;;;;;;5050749;28;20040;-31
2021/01/06 02:01:51;;;;;;;10.52;8.80;;;16.60;99.90;;;;;;5051874;28;20068;-32
2021/01/06 02:04:29;;;;;;;10.52;9.43;;;16.60;99.90;;;;;;5051289;28;20029;-32
2021/01/06 02:07:24;;;;;;;12.27;10.05;;;16.60;99.90;;;;;;5045779;28;20033;-32
2021/01/06 02:10:08;;;;;;;11.57;9.85;;;16.50;99.90;;;;;;5048632;28;20037;-32
2021/01/06 02:12:57;;;;;;;12.35;8.27;;;16.50;99.90;;;;;;5051432;28;20890;-32
2021/01/06 02:15:39;;;;;;;12.63;9.73;;;16.50;99.90;;;;;;5051427;28;20430;-32
2021/01/06 02:18:06;;;;;;;10.15;8.82;;;16.40;99.90;;;;;;5048882;28;20450;-32
2021/01/06 02:20:32;;;;;;;10.05;8.45;;;16.40;99.90;;;;;;5051038;28;20025;-31
2021/01/06 02:22:59;;;;;;;10.43;8.25;;;16.40;99.90;;;;;;5050885;28;20163;-32
2021/01/06 02:25:27;;;;;;;11.07;8.27;;;16.40;99.90;;;;;;5050789;28;20036;-32
2021/01/06 02:27:55;;;;;;;8.38;7.38;;;16.40;99.90;;;;;;5086780;27;20435;-32
2021/01/06 02:30:22;;;;;;;10.13;7.95;;;16.40;99.90;;;;;;5130874;27;20024;-32
2021/01/06 02:32:49;;;;;;;9.32;8.35;;;16.30;99.90;;;;;;5133029;27;20164;-32
2021/01/06 02:35:15;;;;;;;11.63;7.85;;;16.30;99.90;;;;;;5133730;27;20019;-32
2021/01/06 02:37:42;;;;;;;11.52;7.85;;;16.30;99.90;;;;;;5127012;27;20038;-32
2021/01/06 02:40:10;;;;;;;11.50;8.35;;;16.30;99.90;;;;;;5130916;27;20027;-32
2021/01/06 02:42:37;;;;;;;8.90;7.80;;;16.20;99.90;;;;;;5132256;27;20537;-31
2021/01/06 02:45:13;;;;;;;10.10;8.40;;;16.20;99.90;;;;;;5130064;27;20072;-32
2021/01/06 02:47:41;;;;;;;8.70;7.47;;;16.30;99.90;;;;;;5128772;27;20027;-32
2021/01/06 02:50:07;;;;;;;;;;;16.30;99.90;;;;;;5130544;27;20377;-32
2021/01/06 02:52:55;;;;;;;10.05;7.88;;;16.30;99.90;;;;;;5124373;27;19930;-32
2021/01/06 02:55:23;;;;;;;11.63;8.77;;;16.20;99.90;;;;;;5122811;27;20122;-32
2021/01/06 02:57:49;;;;;;;12.18;8.70;;;16.20;99.90;;;;;;5123282;27;20027;-32
2021/01/06 03:00:22;;;;;;;9.40;8.18;;;16.20;99.90;;;;;;5130557;27;20072;-32
2021/01/06 03:02:50;;;;;;;10.80;7.38;;;16.20;99.90;;;;;;5131841;27;20051;-32
2021/01/06 03:05:26;;;;;;;11.27;8.90;;;16.20;99.90;;;;;;5126902;27;20023;-32
2021/01/06 03:07:52;;;;;;;8.88;7.80;;;16.20;99.90;;;;;;5129456;27;20035;-32
2021/01/06 03:10:20;;;;;;;8.70;6.90;;;16.20;99.90;;;;;;5127489;27;20413;-32
2021/01/06 03:12:47;;;;;;;9.18;7.15;;;16.20;99.90;;;;;;5126956;27;20058;-31
2021/01/06 03:15:16;;;;;;;10.63;7.90;;;16.20;99.90;;;;;;5131451;27;20026;-32
2021/01/06 03:17:42;;;;;;;8.90;7.30;;;16.20;99.90;;;;;;5123215;28;20047;-32
2021/01/06 03:20:16;;;;;;;9.68;7.80;;;16.20;99.90;;;;;;5131219;28;20035;-32
2021/01/06 03:22:44;;;;;;;10.18;7.60;;;16.20;99.90;;;;;;5123333;28;20461;-32
2021/01/06 03:25:16;;;;;;;9.63;7.90;;;16.20;99.90;;;;;;5127878;28;20027;-32
2021/01/06 03:27:46;;;;;;;8.75;7.20;;;16.20;99.90;;;;;;5124077;28;20027;-32
2021/01/06 03:30:18;;;;;;;9.32;7.38;;;16.20;99.90;;;;;;5127092;28;20027;-32
2021/01/06 03:32:59;;;;;;;9.63;6.65;;;16.20;99.90;;;;;;5130646;28;20059;-32
2021/01/06 03:35:47;;;;;;;9.25;6.93;;;16.20;99.90;;;;;;5129876;28;20353;-32
2021/01/06 03:38:31;;;;;;;8.82;6.93;;;16.20;99.90;;;;;;5133466;28;20113;-32
2021/01/06 03:40:57;;;;;;;8.70;7.30;;;16.20;99.90;;;;;;5128720;28;20026;-32
2021/01/06 03:43:27;;;;;;;9.25;7.22;;;16.20;99.90;;;;;;5127207;28;20039;-32
2021/01/06 03:46:00;;;;;;;11.07;7.65;;;16.20;99.90;;;;;;5125301;28;20024;-32
2021/01/06 03:48:55;;;;;;;8.18;7.35;;;16.20;99.90;;;;;;5125296;28;20032;-32
2021/01/06 03:51:48;;;;;;;8.13;6.80;;;16.10;99.90;;;;;;5122734;28;20027;-32
2021/01/06 03:54:28;;;;;;;10.50;7.20;;;16.20;99.90;;;;;;5127278;28;20050;-32
2021/01/06 03:56:55;;;;;;;8.40;7.10;;;16.10;99.90;;;;;;5121749;28;20032;-32
2021/01/06 03:59:26;;;;;;;10.00;7.00;;;16.10;99.90;;;;;;5128763;28;20023;-32
2021/01/06 04:02:09;;;;;;;7.68;6.53;;;16.10;99.90;;;;;;5132904;28;20030;-32
2021/01/06 04:04:46;;;;;;;10.77;6.80;;;16.10;99.90;;;;;;5123396;28;20477;-32
2021/01/06 04:07:32;;;;;;;8.48;7.05;;;16.20;99.90;;;;;;5127733;27;20036;-32
2021/01/06 04:10:01;;;;;;;7.97;5.85;;;16.10;99.90;;;;;;5131446;27;20029;-32
2021/01/06 04:12:26;;;;;;;10.90;6.18;;;16.20;99.90;;;;;;5131633;27;20031;-32
2021/01/06 04:14:52;;;;;;;7.38;5.82;;;16.10;99.90;;;;;;5130622;27;20023;-31
2021/01/06 04:17:28;;;;;;;7.82;4.95;;;16.10;99.90;;;;;;5130975;27;20077;-32
2021/01/06 04:20:19;;;;;;;8.23;5.93;;;16.20;99.90;;;;;;5127639;27;20031;-32
2021/01/06 04:22:45;;;;;;;6.85;5.30;;;16.20;99.90;;;;;;5128616;27;20094;-32
2021/01/06 04:25:30;;;;;;;7.18;5.55;;;16.10;99.90;;;;;;5131284;27;20481;-32
2021/01/06 04:27:59;;;;;;;9.55;5.63;;;16.20;99.90;;;;;;5133230;27;20023;-32
2021/01/06 04:30:37;;;;;;;9.35;4.75;;;16.20;99.90;;;;;;5130297;27;20025;-32
2021/01/06 04:33:08;;;;;;;8.77;5.22;;;16.20;99.90;;;;;;5131737;27;20081;-32
2021/01/06 04:35:34;;;;;;;10.73;4.70;;;16.10;99.90;;;;;;5129021;27;20027;-32
2021/01/06 04:38:00;;;;;;;10.13;5.70;;;16.20;99.90;;;;;;5114178;27;20443;-32
2021/01/06 04:40:37;;;;;;;5.88;5.07;;;16.10;99.90;;;;;;5127021;27;20034;-31
2021/01/06 04:43:22;;;;;;;7.57;4.85;;;16.20;99.90;;;;;;5130155;27;20036;-32
2021/01/06 04:46:27;;;;;;;5.20;4.35;;;16.20;99.90;;;;;;5130874;27;20036;-31
2021/01/06 04:49:12;;;;;;;6.82;4.05;;;16.20;99.90;;;;;;5126075;27;20035;-32
2021/01/06 04:52:34;;;;;;;6.65;3.97;;;16.10;99.90;;;;;;5129144;27;20069;-32
2021/01/06 04:55:29;;;;;;;5.15;4.38;;;16.10;99.90;;;;;;5053128;28;20037;-32
2021/01/06 04:57:57;;;;;;;5.78;4.35;;;16.20;99.90;;;;;;5052834;28;20047;-32
2021/01/06 05:00:38;;;;;;;5.47;4.32;;;16.10;99.90;;;;;;5052772;28;20040;-32
2021/01/06 05:03:31;;;;;;;7.15;4.50;;;16.10;99.90;;;;;;5051971;28;20025;-32
2021/01/06 05:06:08;;;;;;;9.63;4.28;;;16.10;99.90;;;;;;5052475;28;20089;-32
2021/01/06 05:08:44;;;;;;;6.05;3.58;;;16.10;99.90;;;;;;5052696;28;20029;-32
2021/01/06 05:11:20;;;;;;;4.90;3.83;;;16.10;99.90;;;;;;5053122;28;20089;-32
2021/01/06 05:14:11;;;;;;;4.82;3.67;;;16.10;99.90;;;;;;5052745;28;20526;-32
2021/01/06 05:16:40;;;;;;;6.13;3.88;;;16.10;99.90;;;;;;5051940;28;20422;-32
2021/01/06 05:19:19;;;;;;;3.90;3.47;;;16.10;99.90;;;;;;5051994;28;20487;-32
2021/01/06 05:21:45;;;;;;;4.38;3.63;;;16.10;99.90;;;;;;5050536;28;21048;-32
2021/01/06 05:24:17;;;;;;;4.57;3.90;;;16.10;99.90;;;;;;5049120;28;20041;-32
2021/01/06 05:26:46;;;;;;;5.55;3.70;;;16.00;99.90;;;;;;5133464;27;20108;-32
2021/01/06 05:29:24;;;;;;;5.35;3.85;;;16.10;99.90;;;;;;5133161;27;20019;-32
2021/01/06 05:31:50;;;;;;;;;;;16.00;99.90;;;;;;5135631;27;20027;-32
2021/01/06 05:34:16;;;;;;;4.43;4.03;;;16.00;99.90;;;;;;5124278;27;19907;-32
2021/01/06 05:36:43;;;;;;;4.78;4.00;;;16.00;99.90;;;;;;5124896;27;20020;-32
2021/01/06 05:39:21;;;;;;;4.53;3.53;;;16.00;99.90;;;;;;5128977;27;20377;-32
2021/01/06 05:41:50;;;;;;;5.22;3.70;;;16.00;99.90;;;;;;5128555;27;20030;-32
2021/01/06 05:44:15;;;;;;;10.18;4.65;;;16.00;99.90;;;;;;5126874;27;20461;-32
2021/01/06 05:46:45;;;;;;;5.07;4.47;;;16.00;99.90;;;;;;5133731;27;20030;-32
2021/01/06 05:49:26;;;;;;;7.50;4.00;;;16.00;99.90;;;;;;5132931;27;20485;-32
2021/01/06 05:52:07;;;;;;;5.35;3.72;;;16.00;99.90;;;;;;5131871;27;20053;-32
2021/01/06 05:54:51;;;;;;;5.22;4.32;;;16.00;99.90;;;;;;5129661;27;20015;-32
2021/01/06 05:57:39;;;;;;;4.68;3.90;;;15.90;99.90;;;;;;5126522;27;20128;-32
2021/01/06 06:00:14;;;;;;;6.25;4.18;;;15.90;99.90;;;;;;5124141;27;20039;-31
2021/01/06 06:02:49;;;;;;;4.40;3.50;;;15.90;99.90;;;;;;5128666;27;20030;-32
2021/01/06 06:05:40;;;;;;;5.80;3.83;;;15.90;99.90;;;;;;5117284;27;20020;-31
2021/01/06 06:08:08;;;;;;;3.97;3.42;;;15.90;99.90;;;;;;5130471;27;20022;-32
2021/01/06 06:10:40;;;;;;;4.30;3.80;;;15.90;99.90;;;;;;5131825;27;20030;-32
2021/01/06 06:13:30;;;;;;;4.63;3.50;;;15.90;99.90;;;;;;5126886;27;20031;-32
2021/01/06 06:16:27;;;;;;;6.28;4.35;;;15.90;99.90;;;;;;5122603;27;20019;-32
2021/01/06 06:19:14;;;;;;;5.97;4.27;;;15.90;99.90;;;;;;5127285;27;20543;-32
2021/01/06 06:21:40;;;;;;;6.82;4.22;;;15.90;99.90;;;;;;5130707;27;20015;-31
2021/01/06 06:24:19;;;;;;;4.47;4.07;;;15.90;99.90;;;;;;5128758;27;20032;-32
2021/01/06 06:27:22;;;;;;;5.60;3.95;;;15.90;99.90;;;;;;5123537;27;20085;-32
2021/01/06 06:30:00;;;;;;;4.60;3.58;;;15.90;99.90;;;;;;5129134;27;20027;-32
2021/01/06 06:32:31;;;;;;;5.45;3.92;;;15.90;99.90;;;;;;5130300;27;20039;-32
2021/01/06 06:35:07;;;;;;;8.73;4.13;;;15.90;99.90;;;;;;5119388;27;20019;-32
2021/01/06 06:37:33;;;;;;;5.63;4.18;;;15.90;99.90;;;;;;5127880;27;20159;-32
2021/01/06 06:39:59;;;;;;;4.78;4.07;;;15.90;99.90;;;;;;5129429;27;20028;-31
2021/01/06 06:42:44;;;;;;;5.82;3.42;;;15.90;99.90;;;;;;5126850;27;20784;-32
2021/01/06 06:45:35;;;;;;;5.80;3.55;;;15.90;99.90;;;;;;5124298;27;20378;-32
2021/01/06 06:48:13;;;;;;;6.00;3.25;;;15.90;99.90;;;;;;5128063;27;20794;-32
2021/01/06 06:50:51;;;;;;;4.43;3.38;;;15.90;99.90;;;;;;5125878;27;20024;-32
2021/01/06 06:53:19;;;;;;;4.72;3.03;;;15.90;99.90;;;;;;5126707;27;20042;-32
2021/01/06 06:55:45;;;;;;;4.95;3.38;;;15.90;99.90;;;;;;5124357;27;20023;-32
2021/01/06 06:58:17;;;;;;;5.00;2.90;;;15.90;99.90;;;;;;5131193;27;20095;-32
2021/01/06 07:00:43;;;;;;;4.38;2.92;;;15.90;99.90;;;;;;5125581;27;20104;-32
2021/01/06 07:03:10;;;;;;;5.07;2.80;;;15.90;99.90;;;;;;5126392;27;20506;-32
2021/01/06 07:05:40;;;;;;;3.80;2.80;;;15.90;99.90;;;;;;5122867;27;20032;-33
2021/01/06 07:08:38;;;;;;;5.40;2.97;;;15.90;99.90;;;;;;5130446;27;20034;-32
2021/01/06 07:11:20;;;;;;;5.95;2.90;;;15.90;99.90;;;;;;5122502;27;20024;-32
2021/01/06 07:13:53;;;;;;;5.80;3.00;;;15.90;99.90;;;;;;5126425;27;20026;-32
2021/01/06 07:16:27;;;;;;;6.30;3.33;;;15.90;99.90;;;;;;5126610;27;20019;-33
2021/01/06 07:19:03;;;;;;;5.07;3.60;;;15.90;99.90;;;;;;5124658;27;20501;-32
2021/01/06 07:21:34;;;;;;;5.22;4.05;;;15.90;99.90;;;;;;5129205;28;20027;-32
2021/01/06 07:24:04;;;;;;;5.63;3.90;;;16.00;99.90;;;;;;5122401;28;20035;-32
2021/01/06 07:26:30;;;;;;;5.30;4.03;;;16.00;99.90;;;;;;5126658;28;20031;-32
2021/01/06 07:29:02;;;;;;;6.93;4.38;;;16.00;99.90;;;;;;5128383;28;20042;-32
2021/01/06 07:31:36;;;;;;;9.55;6.75;;;16.00;99.90;;;;;;5131740;28;20110;-32
2021/01/06 07:34:05;;;;;;;9.93;6.80;;;16.00;99.90;;;;;;5129200;28;20035;-32
2021/01/06 07:36:46;;;;;;;13.27;7.20;;;16.10;99.90;;;;;;5131001;28;20061;-32
2021/01/06 07:39:24;;;;;;;10.43;7.57;;;16.10;99.90;;;;;;5128654;28;20046;-33
2021/01/06 07:41:49;;;;;;;;;;;16.10;99.90;;;;;;5132224;27;20031;-32
2021/01/06 07:44:35;;;;;;;17.67;12.75;;;16.20;99.90;;;;;;5133795;27;20334;-32
2021/01/06 07:47:08;;;;;;;111.68;84.03;;;16.20;99.90;;;;;;5136710;27;20022;-32
2021/01/06 07:49:48;;;;;;;158.70;122.68;;;16.20;99.90;;;;;;5129471;27;20019;-41
2021/01/06 07:52:59;;;;;;;172.52;132.23;;;16.10;99.90;;;;;;5133670;27;20028;-41
2021/01/06 07:55:42;;;;;;;185.68;140.20;;;16.20;99.90;;;;;;5128715;27;20520;-41
2021/01/06 07:58:16;;;;;;;163.43;124.75;;;16.20;99.90;;;;;;5129342;27;20059;-40
2021/01/06 08:01:03;;;;;;;155.25;118.57;;;16.20;99.90;;;;;;5121824;27;20050;-32
2021/01/06 08:03:36;;;;;;;140.10;109.15;;;16.20;99.90;;;;;;5121300;27;20117;-32
2021/01/06 08:06:03;;;;;;;148.07;114.60;;;16.30;99.90;;;;;;5132972;27;20480;-32
2021/01/06 08:08:49;;;;;;;158.70;121.30;;;16.20;99.90;;;;;;5130831;27;20032;-32
2021/01/06 08:11:19;;;;;;;123.85;94.07;;;16.30;99.90;;;;;;5129502;27;20064;-33
2021/01/06 08:13:48;;;;;;;134.77;103.60;;;16.30;99.90;;;;;;5128800;27;20372;-33
2021/01/06 08:16:36;;;;;;;125.40;97.93;;;16.40;99.90;;;;;;5131738;27;20674;-33
2021/01/06 08:19:22;;;;;;;125.88;97.63;;;16.40;99.90;;;;;;5131004;27;20182;-33
2021/01/06 08:22:02;;;;;;;122.10;93.00;;;16.50;99.90;;;;;;5133257;27;20023;-33
2021/01/06 08:24:41;;;;;;;93.28;72.38;;;16.40;99.90;;;;;;5127668;27;20020;-31
2021/01/06 08:27:15;;;;;;;90.15;70.85;;;16.50;99.90;;;;;;5136608;27;20432;-31
2021/01/06 08:29:41;;;;;;;91.10;64.88;;;16.50;99.90;;;;;;5128562;27;20027;-31
2021/01/06 08:32:18;;;;;;;74.22;59.33;;;16.50;99.90;;;;;;5133505;27;20027;-31
2021/01/06 08:34:58;;;;;;;;;;;16.50;99.90;;;;;;5130076;27;20023;-32
2021/01/06 08:37:30;;;;;;;113.78;87.30;;;16.60;99.90;;;;;;5131570;27;20000;-32
2021/01/06 08:39:58;;;;;;;96.78;74.18;;;16.70;99.90;;;;;;5135262;27;20026;-33
2021/01/06 08:42:40;;;;;;;106.57;81.55;;;16.80;99.90;;;;;;5131039;27;20019;-33
2021/01/06 08:45:13;;;;;;;108.30;83.63;;;16.90;99.90;;;;;;5129435;27;20027;-33
2021/01/06 08:47:39;;;;;;;93.30;68.95;;;16.90;99.90;;;;;;5132332;27;20019;-33
2021/01/06 08:50:34;;;;;;;93.43;72.57;;;16.90;99.90;;;;;;5132476;27;20455;-33
2021/01/06 08:53:03;;;;;;;81.05;61.35;;;16.90;99.90;;;;;;5133650;27;20342;-32
2021/01/06 08:55:35;;;;;;;78.55;60.72;;;17.10;99.90;;;;;;5128779;27;20023;-33
2021/01/06 08:58:12;;;;;;;73.75;58.72;;;17.20;99.90;;;;;;5128913;27;20057;-33
2021/01/06 09:00:39;;;;;;;78.13;58.93;;;17.10;99.90;;;;;;5131261;27;20542;-33
2021/01/06 09:03:08;;;;;;;79.97;62.15;;;17.20;99.90;;;;;;5131059;27;20283;-33
2021/01/06 09:05:46;;;;;;;83.80;63.20;;;17.30;99.90;;;;;;5128659;27;20035;-33
2021/01/06 09:08:35;;;;;;;93.20;68.32;;;17.30;99.90;;;;;;5131366;27;20015;-33
2021/01/06 09:11:00;;;;;;;83.03;64.85;;;17.40;99.90;;;;;;5086364;27;20035;-32
2021/01/06 09:13:52;;;;;;;80.57;63.53;;;17.40;99.90;;;;;;5132245;27;20384;-33
2021/01/06 09:16:21;;;;;;;73.78;55.38;;;17.40;99.90;;;;;;5134330;27;20110;-32
2021/01/06 09:18:54;;;;;;;57.92;42.30;;;17.40;99.90;;;;;;5127148;27;20100;-32
2021/01/06 09:21:29;;;;;;;49.50;37.17;;;17.50;99.90;;;;;;5129816;27;20031;-33
2021/01/06 09:24:04;;;;;;;34.30;24.60;;;17.40;99.90;;;;;;5124392;27;20032;-32
2021/01/06 09:26:30;;;;;;;28.90;23.23;;;17.30;99.90;;;;;;5133600;27;20481;-32
2021/01/06 09:29:15;;;;;;;19.30;15.30;;;17.20;99.90;;;;;;5131222;27;20461;-33
2021/01/06 09:31:50;;;;;;;18.17;10.95;;;17.20;99.90;;;;;;5131683;27;20117;-33
2021/01/06 09:34:24;;;;;;;35.88;26.30;;;17.00;99.90;;;;;;5130872;27;20731;-32
2021/01/06 09:36:50;;;;;;;55.40;40.40;;;16.90;99.90;;;;;;5135507;27;20461;-33
2021/01/06 09:39:24;;;;;;;32.90;22.20;;;16.90;99.90;;;;;;5126244;27;20470;-33
2021/01/06 09:41:55;;;;;;;40.95;28.65;;;16.80;99.90;;;;;;5123177;27;20651;-33
2021/01/06 09:44:21;;;;;;;43.10;31.95;;;16.80;99.90;;;;;;5128943;27;20031;-33
2021/01/06 09:47:04;;;;;;;14.13;9.07;;;16.80;99.90;;;;;;5133957;27;20073;-32
2021/01/06 09:49:42;;;;;;;12.38;6.88;;;16.80;99.90;;;;;;5130686;27;20019;-32
2021/01/06 09:52:21;;;;;;;9.00;3.85;;;16.70;99.90;;;;;;5128641;27;20035;-32
2021/01/06 09:54:47;;;;;;;13.43;8.85;;;16.70;99.90;;;;;;5128904;27;20109;-32
2021/01/06 09:57:15;;;;;;;29.73;18.88;;;16.70;99.90;;;;;;5131364;27;20046;-32
2021/01/06 09:59:41;;;;;;;19.77;11.77;;;16.70;99.90;;;;;;5127958;27;20030;-32
2021/01/06 10:02:27;;;;;;;15.23;8.85;;;16.50;99.90;;;;;;5131641;27;20033;-32
2021/01/06 10:05:25;;;;;;;27.73;13.45;;;16.50;99.90;;;;;;5127125;27;20034;-33
2021/01/06 10:07:58;;;;;;;61.55;41.97;;;16.60;99.90;;;;;;5132611;27;20034;-33
2021/01/06 10:10:29;;;;;;;42.28;26.10;;;16.50;99.90;;;;;;5131324;27;20026;-34
2021/01/06 10:13:31;;;;;;;24.15;16.40;;;16.50;99.90;;;;;;5131810;27;20015;-34
2021/01/06 10:16:03;;;;;;;27.73;18.45;;;16.50;99.90;;;;;;5129345;27;20031;-34
2021/01/06 10:19:12;;;;;;;12.35;6.65;;;16.50;99.90;;;;;;5133017;27;20500;-35
2021/01/06 10:21:55;;;;;;;12.55;6.75;;;16.40;99.90;;;;;;5050348;28;20029;-34
2021/01/06 10:24:26;;;;;;;11.00;4.07;;;16.50;99.90;;;;;;5049071;28;20115;-34
2021/01/06 10:27:13;;;;;;;8.60;5.10;;;16.40;99.90;;;;;;5049966;28;20064;-34
2021/01/06 10:29:48;;;;;;;12.57;4.97;;;16.50;99.90;;;;;;5045531;28;20223;-34
2021/01/06 10:32:14;;;;;;;15.07;2.45;;;16.40;99.90;;;;;;5045417;28;20098;-34
2021/01/06 10:34:46;;;;;;;11.82;2.47;;;16.40;99.90;;;;;;5034255;28;20410;-34
2021/01/06 10:37:30;;;;;;;7.07;2.40;;;16.40;99.90;;;;;;5046629;28;20028;-34
2021/01/06 10:40:15;;;;;;;4.65;2.17;;;16.30;99.90;;;;;;5046553;28;20491;-34
2021/01/06 10:42:42;;;;;;;3.97;2.63;;;16.40;99.90;;;;;;5040329;28;20052;-34
2021/01/06 10:45:14;;;;;;;9.15;2.00;;;16.40;99.90;;;;;;5042837;28;20029;-34
2021/01/06 10:47:52;;;;;;;7.15;2.92;;;16.30;99.90;;;;;;5025195;28;20437;-34
2021/01/06 10:50:25;;;;;;;5.45;2.00;;;16.30;99.90;;;;;;5044211;28;20060;-34
2021/01/06 10:53:29;;;;;;;2.90;1.80;;;16.20;99.90;;;;;;5100408;27;20042;-34
2021/01/06 10:56:29;;;;;;;4.38;2.17;;;16.30;99.90;;;;;;5126581;27;20043;-35
2021/01/06 10:59:04;;;;;;;4.35;1.95;;;16.20;99.90;;;;;;5048610;28;20194;-33
2021/01/06 11:01:30;;;;;;;6.15;1.67;;;16.20;99.90;;;;;;5045292;28;20558;-34
2021/01/06 11:04:19;;;;;;;8.35;2.08;;;16.30;99.90;;;;;;5050204;28;20127;-34
2021/01/06 11:06:45;;;;;;;18.52;11.18;;;16.20;99.90;;;;;;5048615;28;20113;-34
2021/01/06 11:09:19;;;;;;;23.77;13.70;;;16.30;99.90;;;;;;5047282;28;20139;-34
2021/01/06 11:11:53;;;;;;;27.08;16.75;;;16.50;99.90;;;;;;5048545;28;20031;-34
2021/01/06 11:14:44;;;;;;;21.35;14.25;;;16.80;99.90;;;;;;5048498;28;20040;-34
2021/01/06 11:17:27;;;;;;;24.60;15.25;;;16.80;99.90;;;;;;5047304;28;20041;-34
2021/01/06 11:20:02;;;;;;;34.75;15.70;;;16.80;99.90;;;;;;5046962;28;20091;-34
2021/01/06 11:22:44;;;;;;;22.77;14.73;;;17.00;99.90;;;;;;5045645;28;20048;-34
2021/01/06 11:25:49;;;;;;;24.05;14.27;;;17.10;99.90;;;;;;5042119;28;20116;-34
2021/01/06 11:28:45;;;;;;;19.13;12.40;;;17.10;99.90;;;;;;5043565;28;20407;-34
2021/01/06 11:31:32;;;;;;;16.40;11.25;;;17.10;99.90;;;;;;5046245;28;20168;-42
2021/01/06 11:34:21;;;;;;;19.45;11.35;;;17.10;99.90;;;;;;5071798;28;20039;-42
2021/01/06 11:36:55;;;;;;;16.10;10.25;;;17.20;99.90;;;;;;5124413;28;20027;-42
2021/01/06 11:39:27;;;;;;;20.48;11.95;;;17.30;99.90;;;;;;5130073;28;20031;-35
2021/01/06 11:41:58;;;;;;;20.48;11.55;;;17.10;99.90;;;;;;5124611;28;20050;-42
2021/01/06 11:44:40;;;;;;;16.63;9.80;;;17.30;99.90;;;;;;5131664;28;20091;-34
2021/01/06 11:47:25;;;;;;;21.77;10.57;;;17.30;99.90;;;;;;5130689;28;20027;-34
2021/01/06 11:50:30;;;;;;;20.35;12.02;;;17.20;99.90;;;;;;5124806;28;20034;-42
2021/01/06 11:53:16;;;;;;;25.23;13.32;;;17.20;99.90;;;;;;5101539;28;20142;-42
2021/01/06 11:55:50;;;;;;;33.42;17.35;;;17.40;99.90;;;;;;5125718;28;20085;-35
2021/01/06 11:58:31;;;;;;;23.65;14.68;;;17.40;99.90;;;;;;5125999;28;20027;-42
2021/01/06 12:01:15;;;;;;;38.42;19.55;;;17.30;99.90;;;;;;5124594;28;20027;-42
2021/01/06 12:04:04;;;;;;;26.85;19.30;;;17.30;99.90;;;;;;5129609;28;20092;-43
2021/01/06 12:06:46;;;;;;;53.60;35.60;;;17.40;99.90;;;;;;5105188;28;20023;-43
2021/01/06 12:09:26;;;;;;;85.93;58.13;;;17.40;99.90;;;;;;5124784;28;20507;-42
2021/01/06 12:12:17;;;;;;;56.53;41.28;;;17.20;99.90;;;;;;5125570;28;20556;-41
2021/01/06 12:15:21;;;;;;;56.60;39.78;;;17.30;99.90;;;;;;5127335;28;20027;-41
2021/01/06 12:17:55;;;;;;;45.58;34.20;;;17.30;99.90;;;;;;5127761;28;20075;-43
2021/01/06 12:20:25;;;;;;;52.95;32.80;;;17.30;99.90;;;;;;5097428;28;20036;-42
2021/01/06 12:23:15;;;;;;;46.22;30.52;;;17.30;99.90;;;;;;5120059;28;20027;-42
2021/01/06 12:25:50;;;;;;;45.33;30.10;;;17.30;99.90;;;;;;5115942;27;20034;-42
2021/01/06 12:28:40;;;;;;;36.80;26.60;;;17.30;99.90;;;;;;5125012;27;20068;-42
2021/01/06 12:31:19;;;;;;;34.75;23.05;;;17.30;99.90;;;;;;5124989;27;20499;-42
2021/01/06 12:34:23;;;;;;;33.33;22.40;;;17.30;99.90;;;;;;5132577;27;20042;-42
2021/01/06 12:37:24;;;;;;;46.47;32.42;;;17.40;99.90;;;;;;5106578;27;20036;-42
2021/01/06 12:40:04;;;;;;;65.75;50.75;;;17.40;99.90;;;;;;5051851;28;20041;-42
2021/01/06 12:42:41;;;;;;;63.85;47.33;;;17.40;99.90;;;;;;5045157;28;20029;-42
2021/01/06 12:45:13;;;;;;;60.53;46.13;;;17.40;99.90;;;;;;5033581;28;20410;-42
2021/01/06 12:47:48;;;;;;;53.85;39.70;;;17.50;99.90;;;;;;5049515;28;20301;-42
2021/01/06 12:50:27;;;;;;;42.60;33.20;;;17.50;99.90;;;;;;5034725;28;20033;-43
2021/01/06 12:53:20;;;;;;;48.10;38.03;;;17.50;99.90;;;;;;5049003;28;20522;-42
2021/01/06 12:56:04;;;;;;;52.92;38.63;;;17.50;99.90;;;;;;5046204;28;20041;-43
2021/01/06 12:58:44;;;;;;;46.55;36.25;;;17.50;99.90;;;;;;5033616;28;20040;-43
2021/01/06 13:01:41;;;;;;;40.28;29.02;;;17.60;99.90;;;;;;5031888;28;20390;-43
2021/01/06 13:04:09;;;;;;;39.28;27.92;;;17.50;99.90;;;;;;5012243;28;20044;-43
2021/01/06 13:06:41;;;;;;;37.47;27.15;;;17.50;99.90;;;;;;5050422;28;20437;-43
2021/01/06 13:09:13;;;;;;;30.42;22.10;;;17.50;99.90;;;;;;5050253;28;20423;-33
2021/01/06 13:11:39;;;;;;;35.95;26.20;;;17.50;99.90;;;;;;5048471;28;20100;-33
2021/01/06 13:14:34;;;;;;;34.88;24.10;;;17.50;99.90;;;;;;5050561;28;20172;-33
2021/01/06 13:17:19;;;;;;;29.67;23.00;;;17.50;99.90;;;;;;5108127;27;20039;-33
2021/01/06 13:19:57;;;;;;;32.13;24.20;;;17.60;99.90;;;;;;5127281;27;20027;-33